createdAt,value
2018-12-01T00:00:40.903Z,103.96
2018-12-01T00:01:41.364Z,104.25
2018-12-01T00:02:41.942Z,104.63
2018-12-01T00:03:42.729Z,104.70
2018-12-01T00:04:42.161Z,104.48
2018-12-01T00:05:43.591Z,103.97
2018-12-01T00:06:44.473Z,103.84
2018-12-01T00:07:45.033Z,103.68
2018-12-01T00:08:45.412Z,104.05
2018-12-01T00:09:45.744Z,104.14
2018-12-01T00:10:46.235Z,104.34
2018-12-01T00:11:46.680Z,105.33
2018-12-01T00:12:47.014Z,105.96
2018-12-01T00:13:47.365Z,105.85
2018-12-01T00:14:47.681Z,105.51
2018-12-01T00:15:48.082Z,104.60
2018-12-01T00:16:48.798Z,105.23
2018-12-01T00:17:49.191Z,106.10
2018-12-01T00:18:49.564Z,106.33
2018-12-01T00:19:49.955Z,105.89
2018-12-01T00:20:50.773Z,105.59
2018-12-01T00:21:51.096Z,104.80
2018-12-01T00:22:51.609Z,105.41
2018-12-01T00:23:51.921Z,105.93
2018-12-01T00:24:52.249Z,106.37
2018-12-01T00:25:52.719Z,106.47
2018-12-01T00:26:53.132Z,106.50
2018-12-01T00:27:54.000Z,106.46
2018-12-01T00:28:54.313Z,106.38
2018-12-01T00:29:54.661Z,106.23
2018-12-01T00:30:55.131Z,105.56
2018-12-01T00:31:55.727Z,105.26
2018-12-01T00:32:56.149Z,105.15
2018-12-01T00:33:56.845Z,105.10
2018-12-01T00:34:57.547Z,104.95
2018-12-01T00:35:57.674Z,104.71
2018-12-01T00:36:58.240Z,104.94
2018-12-01T00:37:58.669Z,104.99
2018-12-01T00:38:07.092Z,105.10
2018-12-01T00:39:07.708Z,105.11
2018-12-01T00:40:08.075Z,105.33
2018-12-01T00:41:08.632Z,105.85
2018-12-01T00:42:09.574Z,106.39
2018-12-01T00:43:10.225Z,107.09
2018-12-01T00:44:10.565Z,107.37
2018-12-01T00:45:10.619Z,107.33
2018-12-01T00:46:11.026Z,107.56
2018-12-01T00:47:11.562Z,107.63
2018-12-01T00:48:12.088Z,107.83
2018-12-01T00:49:12.465Z,107.94
2018-12-01T00:50:13.027Z,107.87
2018-12-01T00:51:12.434Z,107.83
2018-12-01T00:52:13.873Z,107.89
2018-12-01T00:53:14.268Z,107.85
2018-12-01T00:54:14.745Z,107.60
2018-12-01T00:55:15.140Z,107.24
2018-12-01T00:56:15.684Z,107.08
2018-12-01T00:57:16.390Z,106.78
2018-12-01T00:58:16.865Z,106.23
2018-12-01T00:59:17.222Z,105.84
2018-12-01T01:00:17.721Z,105.48
2018-12-01T01:01:18.100Z,105.21
2018-12-01T01:02:18.779Z,104.95
2018-12-01T01:03:19.093Z,104.68
2018-12-01T01:04:19.614Z,104.57
2018-12-01T01:05:19.970Z,104.37
2018-12-01T01:06:20.696Z,104.22
2018-12-01T01:07:21.161Z,104.08
2018-12-01T01:08:21.670Z,104.05
2018-12-01T01:09:22.157Z,104.03
2018-12-01T01:10:23.068Z,103.91
2018-12-01T01:11:23.579Z,103.71
2018-12-01T01:12:24.075Z,103.68
2018-12-01T01:13:24.299Z,103.54
2018-12-01T01:14:24.642Z,103.39
2018-12-01T01:15:24.213Z,103.31
2018-12-01T01:16:25.652Z,103.22
2018-12-01T01:17:26.068Z,103.11
2018-12-01T01:18:26.478Z,102.96
2018-12-01T01:19:26.633Z,102.88
2018-12-01T01:20:27.132Z,102.60
2018-12-01T01:21:27.492Z,102.82
2018-12-01T01:22:27.837Z,103.05
2018-12-01T01:22:36.186Z,102.99
2018-12-01T01:23:37.557Z,103.00
2018-12-01T01:24:37.989Z,102.76
2018-12-01T01:25:38.388Z,103.09
2018-12-01T01:26:38.773Z,103.28
2018-12-01T01:27:39.176Z,102.83
2018-12-01T01:28:39.482Z,102.59
2018-12-01T01:29:39.894Z,102.72
2018-12-01T01:30:40.262Z,102.59
2018-12-01T01:31:40.679Z,102.52
2018-12-01T01:32:41.256Z,102.03
2018-12-01T01:33:41.690Z,102.07
2018-12-01T01:34:42.139Z,102.19
2018-12-01T01:35:42.536Z,102.40
2018-12-01T01:36:43.022Z,102.38
2018-12-01T01:37:43.463Z,102.88
2018-12-01T01:38:44.045Z,103.13
2018-12-01T01:39:44.695Z,103.38
2018-12-01T01:40:45.209Z,103.58
2018-12-01T01:41:45.677Z,103.35
2018-12-01T01:42:46.129Z,103.17
2018-12-01T01:43:46.585Z,103.08
2018-12-01T01:44:47.194Z,103.00
2018-12-01T01:45:47.937Z,102.94
2018-12-01T01:46:48.636Z,102.67
2018-12-01T01:47:49.470Z,102.43
2018-12-01T01:48:49.516Z,102.18
2018-12-01T01:49:49.978Z,102.08
2018-12-01T01:50:50.438Z,102.08
2018-12-01T01:51:50.918Z,101.98
2018-12-01T01:52:51.638Z,102.21
2018-12-01T01:53:52.093Z,102.12
2018-12-01T01:54:52.558Z,101.97
2018-12-01T01:55:53.188Z,101.55
2018-12-01T01:56:53.740Z,101.49
2018-12-01T01:57:54.309Z,101.40
2018-12-01T01:58:54.828Z,101.57
2018-12-01T01:59:55.761Z,102.02
2018-12-01T02:00:55.822Z,102.40
2018-12-01T02:01:56.374Z,102.46
2018-12-01T02:02:56.933Z,102.48
2018-12-01T02:03:57.322Z,102.58
2018-12-01T02:04:57.928Z,102.64
2018-12-01T02:05:58.310Z,102.56
2018-12-01T02:06:58.812Z,102.46
2018-12-01T02:07:07.432Z,102.23
2018-12-01T02:08:08.002Z,102.22
2018-12-01T02:09:08.526Z,102.06
2018-12-01T02:10:08.603Z,101.88
2018-12-01T02:11:09.313Z,102.04
2018-12-01T02:12:09.880Z,102.11
2018-12-01T02:13:10.623Z,102.10
2018-12-01T02:14:11.343Z,102.08
2018-12-01T02:15:11.855Z,101.88
2018-12-01T02:16:12.458Z,101.97
2018-12-01T02:17:12.164Z,101.83
2018-12-01T02:18:13.595Z,101.80
2018-12-01T02:19:14.137Z,101.65
2018-12-01T02:20:14.684Z,101.86
2018-12-01T02:21:15.533Z,101.99
2018-12-01T02:22:15.637Z,102.16
2018-12-01T02:23:15.805Z,102.61
2018-12-01T02:24:16.186Z,102.85
2018-12-01T02:25:17.078Z,102.79
2018-12-01T02:26:18.650Z,103.15
2018-12-01T02:27:18.251Z,103.28
2018-12-01T02:28:18.850Z,103.05
2018-12-01T02:29:19.418Z,102.80
2018-12-01T02:30:19.898Z,102.79
2018-12-01T02:31:20.390Z,102.64
2018-12-01T02:32:20.886Z,102.60
2018-12-01T02:33:21.234Z,102.65
2018-12-01T02:34:21.559Z,102.67
2018-12-01T02:35:21.666Z,102.61
2018-12-01T02:36:22.015Z,102.80
2018-12-01T02:37:22.086Z,102.83
2018-12-01T02:38:22.748Z,102.68
2018-12-01T02:39:23.690Z,102.95
2018-12-01T02:40:24.200Z,103.08
2018-12-01T02:41:24.738Z,103.10
2018-12-01T02:42:25.258Z,102.92
2018-12-01T02:43:25.767Z,102.80
2018-12-01T02:44:26.403Z,102.52
2018-12-01T02:45:26.876Z,102.26
2018-12-01T02:46:27.656Z,102.58
2018-12-01T02:47:28.169Z,102.79
2018-12-01T02:48:28.727Z,102.74
2018-12-01T02:49:29.176Z,102.33
2018-12-01T02:50:28.557Z,102.46
2018-12-01T02:51:29.911Z,102.82
2018-12-01T02:51:38.032Z,103.14
2018-12-01T02:52:39.368Z,103.17
2018-12-01T02:53:39.990Z,103.44
2018-12-01T02:54:39.390Z,103.39
2018-12-01T02:55:40.997Z,103.67
2018-12-01T02:56:41.395Z,103.66
2018-12-01T02:57:42.053Z,103.86
2018-12-01T02:58:42.438Z,103.86
2018-12-01T02:59:42.938Z,103.90
2018-12-01T03:00:43.633Z,103.92
2018-12-01T03:01:44.254Z,103.84
2018-12-01T03:02:45.814Z,103.56
2018-12-01T03:03:45.397Z,103.71
2018-12-01T03:04:46.107Z,103.59
2018-12-01T03:05:46.599Z,104.01
2018-12-01T03:06:47.160Z,104.24
2018-12-01T03:07:47.944Z,104.32
2018-12-01T03:08:48.276Z,104.21
2018-12-01T03:09:48.869Z,104.69
2018-12-01T03:10:49.313Z,104.50
2018-12-01T03:11:49.654Z,104.24
2018-12-01T03:12:50.131Z,104.08
2018-12-01T03:13:50.623Z,104.02
2018-12-01T03:14:51.025Z,104.02
2018-12-01T03:15:51.635Z,104.07
2018-12-01T03:16:52.094Z,103.93
2018-12-01T03:17:52.615Z,103.84
2018-12-01T03:18:53.036Z,103.78
2018-12-01T03:19:53.491Z,104.02
2018-12-01T03:20:52.885Z,104.17
2018-12-01T03:21:54.631Z,104.28
2018-12-01T03:22:55.047Z,104.54
2018-12-01T03:23:55.526Z,104.63
2018-12-01T03:24:55.967Z,104.63
2018-12-01T03:25:56.383Z,104.56
2018-12-01T03:26:55.847Z,104.50
2018-12-01T03:27:57.323Z,104.82
2018-12-01T03:28:57.800Z,105.04
2018-12-01T03:29:58.225Z,104.99
2018-12-01T03:30:58.765Z,105.10
2018-12-01T03:31:58.204Z,105.14
2018-12-01T03:32:59.589Z,105.03
2018-12-01T03:34:00.111Z,104.79
2018-12-01T03:34:59.406Z,104.81
2018-12-01T03:36:00.925Z,104.68
2018-12-01T03:37:01.345Z,104.74
2018-12-01T03:38:02.072Z,104.55
2018-12-01T03:39:02.536Z,104.49
2018-12-01T03:40:03.240Z,104.13
2018-12-01T03:40:12.607Z,104.20
2018-12-01T03:41:12.994Z,104.21
2018-12-01T03:42:13.356Z,104.15
2018-12-01T03:43:13.676Z,104.17
2018-12-01T03:44:14.043Z,104.23
2018-12-01T03:45:14.466Z,104.25
2018-12-01T03:46:15.026Z,104.26
2018-12-01T03:47:15.519Z,104.41
2018-12-01T03:48:15.859Z,104.23
2018-12-01T03:49:16.334Z,104.20
2018-12-01T03:50:16.860Z,104.11
2018-12-01T03:51:17.245Z,103.85
2018-12-01T03:52:17.794Z,103.80
2018-12-01T03:53:18.297Z,103.78
2018-12-01T03:54:18.691Z,103.94
2018-12-01T03:55:19.261Z,103.98
2018-12-01T03:56:19.723Z,104.06
2018-12-01T03:57:20.362Z,104.05
2018-12-01T03:58:20.730Z,104.00
2018-12-01T03:59:21.413Z,103.94
2018-12-01T04:00:21.941Z,104.11
2018-12-01T04:01:22.499Z,104.18
2018-12-01T04:02:22.986Z,104.27
2018-12-01T04:03:23.373Z,104.20
2018-12-01T04:04:23.801Z,104.21
2018-12-01T04:05:24.168Z,104.21
2018-12-01T04:06:24.576Z,104.41
2018-12-01T04:07:25.106Z,104.59
2018-12-01T04:08:25.730Z,104.44
2018-12-01T04:09:26.254Z,104.40
2018-12-01T04:10:26.729Z,104.44
2018-12-01T04:11:27.132Z,104.53
2018-12-01T04:12:27.530Z,104.48
2018-12-01T04:13:28.125Z,104.68
2018-12-01T04:14:28.737Z,104.80
2018-12-01T04:15:29.145Z,104.50
2018-12-01T04:16:29.673Z,104.50
2018-12-01T04:17:30.099Z,104.71
2018-12-01T04:18:30.509Z,104.83
2018-12-01T04:19:30.997Z,105.00
2018-12-01T04:20:31.754Z,105.02
2018-12-01T04:21:32.456Z,104.87
2018-12-01T04:22:33.167Z,104.84
2018-12-01T04:23:33.567Z,104.68
2018-12-01T04:23:41.673Z,104.59
2018-12-01T04:24:43.184Z,104.58
2018-12-01T04:25:43.279Z,104.69
2018-12-01T04:26:43.888Z,104.75
2018-12-01T04:27:43.433Z,104.71
2018-12-01T04:28:44.892Z,104.62
2018-12-01T04:29:45.619Z,104.42
2018-12-01T04:30:46.174Z,104.39
2018-12-01T04:31:46.791Z,104.40
2018-12-01T04:32:46.165Z,104.21
2018-12-01T04:33:47.659Z,104.37
2018-12-01T04:34:48.378Z,104.24
2018-12-01T04:35:49.076Z,104.33
2018-12-01T04:36:49.616Z,104.23
2018-12-01T04:37:50.150Z,103.91
2018-12-01T04:38:50.518Z,103.80
2018-12-01T04:39:51.153Z,104.06
2018-12-01T04:40:51.588Z,104.19
2018-12-01T04:41:51.961Z,104.46
2018-12-01T04:42:52.283Z,104.52
2018-12-01T04:43:52.800Z,104.49
2018-12-01T04:44:53.202Z,104.57
2018-12-01T04:45:53.619Z,104.58
2018-12-01T04:46:54.116Z,104.62
2018-12-01T04:47:54.569Z,104.75
2018-12-01T04:48:55.141Z,104.76
2018-12-01T04:49:55.717Z,104.70
2018-12-01T04:50:56.435Z,104.65
2018-12-01T04:51:56.812Z,104.70
2018-12-01T04:52:57.373Z,104.79
2018-12-01T04:53:57.933Z,104.79
2018-12-01T04:54:58.427Z,104.81
2018-12-01T04:55:59.077Z,104.87
2018-12-01T04:56:59.428Z,104.73
2018-12-01T04:58:00.208Z,104.85
2018-12-01T04:59:00.844Z,104.79
2018-12-01T05:00:01.359Z,104.64
2018-12-01T05:01:02.298Z,104.72
2018-12-01T05:02:02.782Z,104.79
2018-12-01T05:03:03.203Z,104.93
2018-12-01T05:04:03.587Z,105.04
2018-12-01T05:05:04.269Z,105.09
2018-12-01T05:06:05.001Z,105.24
2018-12-01T05:07:05.459Z,105.28
2018-12-01T05:08:05.922Z,105.33
2018-12-01T05:09:06.619Z,105.43
2018-12-01T05:09:15.000Z,105.49
2018-12-01T05:10:15.677Z,105.48
2018-12-01T05:11:16.254Z,105.37
2018-12-01T05:12:16.904Z,105.40
2018-12-01T05:13:17.825Z,105.33
2018-12-01T05:14:18.509Z,105.35
2018-12-01T05:15:19.467Z,105.37
2018-12-01T05:16:18.737Z,105.28
2018-12-01T05:17:20.150Z,105.30
2018-12-01T05:18:20.808Z,105.36
2018-12-01T05:19:21.240Z,105.57
2018-12-01T05:20:21.663Z,105.74
2018-12-01T05:21:22.250Z,105.61
2018-12-01T05:22:22.826Z,105.53
2018-12-01T05:23:23.498Z,105.62
2018-12-01T05:24:23.986Z,105.66
2018-12-01T05:25:24.694Z,105.69
2018-12-01T05:26:25.121Z,105.70
2018-12-01T05:27:25.681Z,105.73
2018-12-01T05:28:25.859Z,105.64
2018-12-01T05:29:26.617Z,105.55
2018-12-01T05:30:26.842Z,105.24
2018-12-01T05:31:27.238Z,104.97
2018-12-01T05:32:27.418Z,104.93
2018-12-01T05:33:27.837Z,104.93
2018-12-01T05:34:28.396Z,104.88
2018-12-01T05:35:28.936Z,105.01
2018-12-01T05:36:29.542Z,105.10
2018-12-01T05:37:30.121Z,104.94
2018-12-01T05:38:30.522Z,105.02
2018-12-01T05:39:31.030Z,105.10
2018-12-01T05:40:31.642Z,104.87
2018-12-01T05:41:32.177Z,104.89
2018-12-01T05:42:32.673Z,104.82
2018-12-01T05:43:33.259Z,104.71
2018-12-01T05:44:33.694Z,104.79
2018-12-01T05:45:34.176Z,104.79
2018-12-01T05:46:34.514Z,104.59
2018-12-01T05:47:34.838Z,104.55
2018-12-01T05:48:35.279Z,104.50
2018-12-01T05:49:36.060Z,104.46
2018-12-01T05:50:36.612Z,104.35
2018-12-01T05:51:37.215Z,104.39
2018-12-01T05:52:37.698Z,104.50
2018-12-01T05:53:36.832Z,104.53
2018-12-01T05:54:38.598Z,104.61
2018-12-01T05:55:39.567Z,104.66
2018-12-01T05:55:48.000Z,104.65
2018-12-01T05:56:49.452Z,104.65
2018-12-01T05:57:49.846Z,104.70
2018-12-01T05:58:50.367Z,104.51
2018-12-01T05:59:51.227Z,104.57
2018-12-01T06:00:51.726Z,104.67
2018-12-01T06:01:52.285Z,104.70
2018-12-01T06:02:52.960Z,104.65
2018-12-01T06:03:53.938Z,104.48
2018-12-01T06:04:54.382Z,104.46
2018-12-01T06:05:54.659Z,104.53
2018-12-01T06:06:55.625Z,104.44
2018-12-01T06:07:56.216Z,104.38
2018-12-01T06:08:56.930Z,104.41
2018-12-01T06:09:57.559Z,104.52
2018-12-01T06:10:58.246Z,104.54
2018-12-01T06:11:58.887Z,104.58
2018-12-01T06:12:59.439Z,104.65
2018-12-01T06:13:59.993Z,104.80
2018-12-01T06:15:00.558Z,104.82
2018-12-01T06:16:01.044Z,104.87
2018-12-01T06:17:01.653Z,105.02
2018-12-01T06:18:02.254Z,105.30
2018-12-01T06:19:02.997Z,105.29
2018-12-01T06:20:03.595Z,105.15
2018-12-01T06:21:04.149Z,105.24
2018-12-01T06:22:04.614Z,105.12
2018-12-01T06:23:05.085Z,105.07
2018-12-01T06:24:05.762Z,105.05
2018-12-01T06:25:06.463Z,104.95
2018-12-01T06:26:07.124Z,104.82
2018-12-01T06:27:07.704Z,104.81
2018-12-01T06:28:08.489Z,104.88
2018-12-01T06:29:09.106Z,105.14
2018-12-01T06:30:09.942Z,105.45
2018-12-01T06:31:10.471Z,105.57
2018-12-01T06:32:10.811Z,105.54
2018-12-01T06:33:11.419Z,105.25
2018-12-01T06:34:11.965Z,105.76
2018-12-01T06:35:12.407Z,105.65
2018-12-01T06:36:13.130Z,105.53
2018-12-01T06:37:13.592Z,105.37
2018-12-01T06:38:14.196Z,105.26
2018-12-01T06:39:14.706Z,105.37
2018-12-01T06:40:15.401Z,105.35
2018-12-01T06:41:16.024Z,105.40
2018-12-01T06:41:24.474Z,105.52
2018-12-01T06:42:25.949Z,105.53
2018-12-01T06:43:26.476Z,105.73
2018-12-01T06:44:26.978Z,105.69
2018-12-01T06:45:27.540Z,105.69
2018-12-01T06:46:28.119Z,106.29
2018-12-01T06:47:28.570Z,106.40
2018-12-01T06:48:29.017Z,106.27
2018-12-01T06:49:29.786Z,105.98
2018-12-01T06:50:30.270Z,106.14
2018-12-01T06:51:30.704Z,105.89
2018-12-01T06:52:31.280Z,105.48
2018-12-01T06:53:31.706Z,105.10
2018-12-01T06:54:32.298Z,105.06
2018-12-01T06:55:33.034Z,104.71
2018-12-01T06:56:33.424Z,104.20
2018-12-01T06:57:34.108Z,103.65
2018-12-01T06:58:34.454Z,103.63
2018-12-01T06:59:34.917Z,103.69
2018-12-01T07:00:35.474Z,103.62
2018-12-01T07:01:35.787Z,103.81
2018-12-01T07:02:36.293Z,104.23
2018-12-01T07:03:36.906Z,104.28
2018-12-01T07:04:37.246Z,103.93
2018-12-01T07:05:37.606Z,103.73
2018-12-01T07:06:38.022Z,103.57
2018-12-01T07:07:38.502Z,103.42
2018-12-01T07:08:38.850Z,104.06
2018-12-01T07:09:39.267Z,104.34
2018-12-01T07:10:39.868Z,104.83
2018-12-01T07:11:40.225Z,105.00
2018-12-01T07:12:40.711Z,105.79
2018-12-01T07:13:41.152Z,105.88
2018-12-01T07:14:41.652Z,105.76
2018-12-01T07:15:42.182Z,105.49
2018-12-01T07:16:42.551Z,105.32
2018-12-01T07:17:43.035Z,105.38
2018-12-01T07:18:43.584Z,105.53
2018-12-01T07:19:44.085Z,105.30
2018-12-01T07:20:44.795Z,104.36
2018-12-01T07:21:45.115Z,103.78
2018-12-01T07:22:45.620Z,103.34
2018-12-01T07:23:46.035Z,103.27
2018-12-01T07:24:46.482Z,102.34
2018-12-01T07:25:46.847Z,102.05
2018-12-01T07:26:47.240Z,101.50
2018-12-01T07:26:55.626Z,101.25
2018-12-01T07:27:56.981Z,101.25
2018-12-01T07:28:57.372Z,101.22
2018-12-01T07:29:58.175Z,101.14
2018-12-01T07:30:57.207Z,100.92
2018-12-01T07:31:58.625Z,100.72
2018-12-01T07:32:59.201Z,100.37
2018-12-01T07:33:59.590Z,100.35
2018-12-01T07:34:59.979Z,100.35
2018-12-01T07:36:00.400Z,100.23
2018-12-01T07:37:01.085Z,100.01
2018-12-01T07:38:01.546Z,99.21
2018-12-01T07:39:01.889Z,98.75
2018-12-01T07:40:02.265Z,98.62
2018-12-01T07:41:03.166Z,98.70
2018-12-01T07:42:03.633Z,98.61
2018-12-01T07:43:04.058Z,98.68
2018-12-01T07:44:04.772Z,98.62
2018-12-01T07:45:05.203Z,98.59
2018-12-01T07:46:06.028Z,98.56
2018-12-01T07:47:06.405Z,98.58
2018-12-01T07:48:06.900Z,98.37
2018-12-01T07:49:07.353Z,98.34
2018-12-01T07:50:07.867Z,98.35
2018-12-01T07:51:08.203Z,97.61
2018-12-01T07:52:08.515Z,97.35
2018-12-01T07:53:09.661Z,97.41
2018-12-01T07:54:08.317Z,97.38
2018-12-01T07:55:09.833Z,97.29
2018-12-01T07:56:10.232Z,97.26
2018-12-01T07:57:10.807Z,96.88
2018-12-01T07:58:11.424Z,96.93
2018-12-01T07:59:11.905Z,96.89
2018-12-01T08:00:12.234Z,96.91
2018-12-01T08:01:12.609Z,97.15
2018-12-01T08:02:12.962Z,97.33
2018-12-01T08:03:13.591Z,97.37
2018-12-01T08:04:14.033Z,97.37
2018-12-01T08:05:14.521Z,96.98
2018-12-01T08:06:15.109Z,96.83
2018-12-01T08:07:15.442Z,96.86
2018-12-01T08:08:15.830Z,96.61
2018-12-01T08:09:16.738Z,96.65
2018-12-01T08:10:17.246Z,96.85
2018-12-01T08:11:17.602Z,97.21
2018-12-01T08:12:17.993Z,97.10
2018-12-01T08:12:26.775Z,96.96
2018-12-01T08:13:27.390Z,96.94
2018-12-01T08:14:28.333Z,96.75
2018-12-01T08:15:29.037Z,96.77
2018-12-01T08:16:29.492Z,96.85
2018-12-01T08:17:29.952Z,97.18
2018-12-01T08:18:30.429Z,97.06
2018-12-01T08:19:30.793Z,97.03
2018-12-01T08:20:31.061Z,96.94
2018-12-01T08:21:31.528Z,96.69
2018-12-01T08:22:31.887Z,96.38
2018-12-01T08:23:32.341Z,96.61
2018-12-01T08:24:32.714Z,96.69
2018-12-01T08:25:33.089Z,96.78
2018-12-01T08:26:33.589Z,96.87
2018-12-01T08:27:33.927Z,97.10
2018-12-01T08:28:34.333Z,96.88
2018-12-01T08:29:34.731Z,96.99
2018-12-01T08:30:35.133Z,97.30
2018-12-01T08:31:35.480Z,97.22
2018-12-01T08:32:35.903Z,97.07
2018-12-01T08:33:36.202Z,97.29
2018-12-01T08:34:36.533Z,97.68
2018-12-01T08:35:36.995Z,97.78
2018-12-01T08:36:37.290Z,97.86
2018-12-01T08:37:38.156Z,97.72
2018-12-01T08:38:38.646Z,97.55
2018-12-01T08:39:39.142Z,97.38
2018-12-01T08:40:39.758Z,97.35
2018-12-01T08:41:40.101Z,97.30
2018-12-01T08:42:40.728Z,97.31
2018-12-01T08:43:41.160Z,97.32
2018-12-01T08:44:41.531Z,97.02
2018-12-01T08:45:42.238Z,97.08
2018-12-01T08:46:42.504Z,97.00
2018-12-01T08:47:42.842Z,96.90
2018-12-01T08:48:43.449Z,96.70
2018-12-01T08:49:44.518Z,96.41
2018-12-01T08:50:43.187Z,96.58
2018-12-01T08:51:44.578Z,96.70
2018-12-01T08:52:44.983Z,96.62
2018-12-01T08:53:45.552Z,96.69
2018-12-01T08:54:46.183Z,96.37
2018-12-01T08:55:46.774Z,96.28
2018-12-01T08:56:47.106Z,95.80
2018-12-01T08:57:47.527Z,96.22
2018-12-01T08:57:55.878Z,96.19
2018-12-01T08:58:57.371Z,96.18
2018-12-01T08:59:57.800Z,96.10
2018-12-01T09:00:58.123Z,95.89
2018-12-01T09:01:58.479Z,95.93
2018-12-01T09:02:59.997Z,95.96
2018-12-01T09:03:59.405Z,95.83
2018-12-01T09:04:59.681Z,95.91
2018-12-01T09:06:00.088Z,95.89
2018-12-01T09:07:00.761Z,95.97
2018-12-01T09:08:01.183Z,96.32
2018-12-01T09:09:01.584Z,96.07
2018-12-01T09:10:02.108Z,96.19
2018-12-01T09:11:02.474Z,96.36
2018-12-01T09:12:02.927Z,96.57
2018-12-01T09:13:03.455Z,96.61
2018-12-01T09:14:03.878Z,97.01
2018-12-01T09:15:03.871Z,96.98
2018-12-01T09:16:04.863Z,96.81
2018-12-01T09:17:05.245Z,96.83
2018-12-01T09:18:05.636Z,96.58
2018-12-01T09:19:06.012Z,96.55
2018-12-01T09:20:06.899Z,96.20
2018-12-01T09:21:07.265Z,96.38
2018-12-01T09:22:07.690Z,96.33
2018-12-01T09:23:08.184Z,96.43
2018-12-01T09:24:09.060Z,96.31
2018-12-01T09:25:09.442Z,96.41
2018-12-01T09:26:09.786Z,96.42
2018-12-01T09:27:10.250Z,95.95
2018-12-01T09:28:10.540Z,95.96
2018-12-01T09:29:11.014Z,95.91
2018-12-01T09:30:11.385Z,95.62
2018-12-01T09:31:11.768Z,95.97
2018-12-01T09:32:12.120Z,95.82
2018-12-01T09:33:12.513Z,95.61
2018-12-01T09:34:12.879Z,95.45
2018-12-01T09:35:13.262Z,95.52
2018-12-01T09:36:13.881Z,95.51
2018-12-01T09:37:14.591Z,94.25
2018-12-01T09:38:15.243Z,94.66
2018-12-01T09:39:15.580Z,94.24
2018-12-01T09:40:15.931Z,93.99
2018-12-01T09:41:16.514Z,94.06
2018-12-01T09:42:16.889Z,93.99
2018-12-01T09:43:17.375Z,94.04
2018-12-01T09:43:26.001Z,93.25
2018-12-01T09:44:26.456Z,93.25
2018-12-01T09:45:26.901Z,93.38
2018-12-01T09:46:27.341Z,93.43
2018-12-01T09:47:27.832Z,92.37
2018-12-01T09:48:27.231Z,91.05
2018-12-01T09:49:29.348Z,90.94
2018-12-01T09:50:28.152Z,91.07
2018-12-01T09:51:29.504Z,90.60
2018-12-01T09:52:29.928Z,90.80
2018-12-01T09:53:30.316Z,90.34
2018-12-01T09:54:30.837Z,90.36
2018-12-01T09:55:31.193Z,90.53
2018-12-01T09:56:31.594Z,90.73
2018-12-01T09:57:32.020Z,91.57
2018-12-01T09:58:32.465Z,91.60
2018-12-01T09:59:32.865Z,90.89
2018-12-01T10:00:33.283Z,90.53
2018-12-01T10:01:33.837Z,90.59
2018-12-01T10:02:34.645Z,90.80
2018-12-01T10:03:35.288Z,89.67
2018-12-01T10:04:35.694Z,90.38
2018-12-01T10:05:36.482Z,90.70
2018-12-01T10:06:37.023Z,89.73
2018-12-01T10:07:37.575Z,89.92
2018-12-01T10:08:38.039Z,90.03
2018-12-01T10:09:38.384Z,88.78
2018-12-01T10:10:38.797Z,88.67
2018-12-01T10:11:39.113Z,88.40
2018-12-01T10:12:39.978Z,88.54
2018-12-01T10:13:40.385Z,88.69
2018-12-01T10:14:40.845Z,88.48
2018-12-01T10:15:41.206Z,88.84
2018-12-01T10:16:41.768Z,89.03
2018-12-01T10:17:42.270Z,89.53
2018-12-01T10:18:42.860Z,89.38
2018-12-01T10:19:43.752Z,88.68
2018-12-01T10:20:44.412Z,88.36
2018-12-01T10:21:44.876Z,88.37
2018-12-01T10:22:45.350Z,88.67
2018-12-01T10:23:45.435Z,88.43
2018-12-01T10:24:45.924Z,88.43
2018-12-01T10:25:46.356Z,88.37
2018-12-01T10:26:46.706Z,88.69
2018-12-01T10:27:47.190Z,88.28
2018-12-01T10:28:47.567Z,88.23
2018-12-01T10:29:48.017Z,88.50
2018-12-01T10:29:56.445Z,88.49
2018-12-01T10:30:57.722Z,88.47
2018-12-01T10:31:58.174Z,87.95
2018-12-01T10:32:58.533Z,88.27
2018-12-01T10:33:58.988Z,88.26
2018-12-01T10:34:59.300Z,88.26
2018-12-01T10:35:59.723Z,88.53
2018-12-01T10:37:00.149Z,88.92
2018-12-01T10:38:00.742Z,88.82
2018-12-01T10:39:03.710Z,89.13
2018-12-01T10:40:00.393Z,89.15
2018-12-01T10:41:02.124Z,89.21
2018-12-01T10:42:03.703Z,89.49
2018-12-01T10:43:01.957Z,89.50
2018-12-01T10:44:03.703Z,90.00
2018-12-01T10:45:03.699Z,88.75
2018-12-01T10:46:04.077Z,88.72
2018-12-01T10:47:04.525Z,88.92
2018-12-01T10:48:05.210Z,88.73
2018-12-01T10:49:05.884Z,89.02
2018-12-01T10:50:06.283Z,89.08
2018-12-01T10:51:06.713Z,88.54
2018-12-01T10:52:07.144Z,88.82
2018-12-01T10:53:07.537Z,89.01
2018-12-01T10:54:07.951Z,88.84
2018-12-01T10:55:08.433Z,88.80
2018-12-01T10:56:08.885Z,88.62
2018-12-01T10:57:09.289Z,88.57
2018-12-01T10:58:09.652Z,88.09
2018-12-01T10:59:10.079Z,87.28
2018-12-01T11:00:10.540Z,87.91
2018-12-01T11:01:10.976Z,87.02
2018-12-01T11:02:11.576Z,87.38
2018-12-01T11:03:12.073Z,87.37
2018-12-01T11:04:12.883Z,87.14
2018-12-01T11:05:13.516Z,87.48
2018-12-01T11:06:14.113Z,87.10
2018-12-01T11:07:14.477Z,87.14
2018-12-01T11:08:14.766Z,87.27
2018-12-01T11:09:15.039Z,87.50
2018-12-01T11:10:16.486Z,87.69
2018-12-01T11:11:14.795Z,87.81
2018-12-01T11:12:16.169Z,87.95
2018-12-01T11:13:16.525Z,87.29
2018-12-01T11:14:16.959Z,87.50
2018-12-01T11:15:17.695Z,87.53
2018-12-01T11:16:18.017Z,87.58
2018-12-01T11:17:18.584Z,87.70
2018-12-01T11:17:26.995Z,87.88
2018-12-01T11:18:27.401Z,87.91
2018-12-01T11:19:28.711Z,88.06
2018-12-01T11:20:29.111Z,88.29
2018-12-01T11:21:29.410Z,88.74
2018-12-01T11:22:29.897Z,89.30
2018-12-01T11:23:30.281Z,88.92
2018-12-01T11:24:30.576Z,88.63
2018-12-01T11:25:30.997Z,88.48
2018-12-01T11:26:31.426Z,88.83
2018-12-01T11:27:31.749Z,88.63
2018-12-01T11:28:32.158Z,87.98
2018-12-01T11:29:33.945Z,87.54
2018-12-01T11:30:33.369Z,87.38
2018-12-01T11:31:33.874Z,87.25
2018-12-01T11:32:34.315Z,87.43
2018-12-01T11:33:34.801Z,87.42
2018-12-01T11:34:35.016Z,87.23
2018-12-01T11:35:35.376Z,87.51
2018-12-01T11:36:35.648Z,87.52
2018-12-01T11:37:36.104Z,87.41
2018-12-01T11:38:36.414Z,87.62
2018-12-01T11:39:36.718Z,87.93
2018-12-01T11:40:37.383Z,87.99
2018-12-01T11:41:37.774Z,87.66
2018-12-01T11:42:36.798Z,87.38
2018-12-01T11:43:38.136Z,86.94
2018-12-01T11:44:38.929Z,87.20
2018-12-01T11:45:39.232Z,87.42
2018-12-01T11:46:39.724Z,87.22
2018-12-01T11:47:40.397Z,85.43
2018-12-01T11:48:40.792Z,85.75
2018-12-01T11:49:41.192Z,85.67
2018-12-01T11:50:41.860Z,85.46
2018-12-01T11:51:42.325Z,85.72
2018-12-01T11:52:42.742Z,84.97
2018-12-01T11:53:43.157Z,85.34
2018-12-01T11:54:43.581Z,85.62
2018-12-01T11:55:44.219Z,85.86
2018-12-01T11:56:44.501Z,85.46
2018-12-01T11:57:44.851Z,85.68
2018-12-01T11:58:46.240Z,85.99
2018-12-01T11:59:45.570Z,85.80
2018-12-01T12:00:46.114Z,84.86
2018-12-01T12:01:46.678Z,84.20
2018-12-01T12:02:47.070Z,84.14
2018-12-01T12:03:47.354Z,83.83
2018-12-01T12:03:57.281Z,84.65
2018-12-01T12:04:58.687Z,84.62
2018-12-01T12:05:59.110Z,84.71
2018-12-01T12:06:59.495Z,83.72
2018-12-01T12:07:59.953Z,82.80
2018-12-01T12:09:00.437Z,82.64
2018-12-01T12:10:00.794Z,82.92
2018-12-01T12:11:02.259Z,83.66
2018-12-01T12:12:01.675Z,83.21
2018-12-01T12:13:02.229Z,83.34
2018-12-01T12:14:02.721Z,83.07
2018-12-01T12:15:03.136Z,83.45
2018-12-01T12:16:03.629Z,82.86
2018-12-01T12:17:03.939Z,83.33
2018-12-01T12:18:04.473Z,83.63
2018-12-01T12:19:04.860Z,84.41
2018-12-01T12:20:05.216Z,84.29
2018-12-01T12:21:05.500Z,84.28
2018-12-01T12:22:05.827Z,83.19
2018-12-01T12:23:06.174Z,83.02
2018-12-01T12:24:06.504Z,83.22
2018-12-01T12:25:06.790Z,82.80
2018-12-01T12:26:07.110Z,82.40
2018-12-01T12:27:07.461Z,83.15
2018-12-01T12:28:07.917Z,83.41
2018-12-01T12:29:08.264Z,82.89
2018-12-01T12:30:08.843Z,82.85